sensor_id;sensor_type;location;lat;lon;timestamp;pressure;altitude;pressure_sealevel;temperature;humidity
23172;BME280;11754;42.664;23.594;2024-02-23T00:00:09;95138.75;;;7.42;59.59
23172;BME280;11754;42.664;23.594;2024-02-23T00:02:37;95146.88;;;7.31;59.38
23172;BME280;11754;42.664;23.594;2024-02-23T00:05:03;95147.38;;;7.34;59.65
23172;BME280;11754;42.664;23.594;2024-02-23T00:07:29;95135.66;;;7.46;59.51
23172;BME280;11754;42.664;23.594;2024-02-23T00:09:54;95137.66;;;7.53;59.08
23172;BME280;11754;42.664;23.594;2024-02-23T00:15:41;95131.31;;;7.63;58.49
23172;BME280;11754;42.664;23.594;2024-02-23T00:18:06;95126.59;;;7.75;58.25
23172;BME280;11754;42.664;23.594;2024-02-23T00:20:33;95131.72;;;7.77;58.16
23172;BME280;11754;42.664;23.594;2024-02-23T00:22:58;95123.13;;;7.66;58.29
23172;BME280;11754;42.664;23.594;2024-02-23T00:25:24;95129.16;;;7.59;58.98
23172;BME280;11754;42.664;23.594;2024-02-23T00:27:49;95122.31;;;7.66;58.71
23172;BME280;11754;42.664;23.594;2024-02-23T00:30:15;95123.97;;;7.75;58.92
23172;BME280;11754;42.664;23.594;2024-02-23T00:32:46;95121.22;;;7.77;59.07
23172;BME280;11754;42.664;23.594;2024-02-23T00:35:12;95122.06;;;7.51;59.49
23172;BME280;11754;42.664;23.594;2024-02-23T00:37:37;95118.47;;;7.86;59.46
23172;BME280;11754;42.664;23.594;2024-02-23T00:40:04;95110.94;;;7.91;59.40
23172;BME280;11754;42.664;23.594;2024-02-23T00:42:30;95108.88;;;8.11;58.73
23172;BME280;11754;42.664;23.594;2024-02-23T00:44:56;95102.28;;;8.07;58.38
23172;BME280;11754;42.664;23.594;2024-02-23T00:47:21;95109.91;;;7.76;59.33
23172;BME280;11754;42.664;23.594;2024-02-23T00:49:46;95117.47;;;7.87;59.00
23172;BME280;11754;42.664;23.594;2024-02-23T00:52:12;95110.13;;;7.91;58.53
23172;BME280;11754;42.664;23.594;2024-02-23T00:54:37;95103.69;;;7.85;59.03
23172;BME280;11754;42.664;23.594;2024-02-23T00:57:03;95117.13;;;7.82;59.52
23172;BME280;11754;42.664;23.594;2024-02-23T01:56:08;95071.06;;;6.93;64.82
23172;BME280;11754;42.664;23.594;2024-02-23T01:58:35;95074.25;;;7.05;64.41
23172;BME280;11754;42.664;23.594;2024-02-23T02:01:02;95073.75;;;7.02;64.59
23172;BME280;11754;42.664;23.594;2024-02-23T02:03:27;95078.16;;;7.01;64.83
23172;BME280;11754;42.664;23.594;2024-02-23T02:05:53;95069.81;;;7.06;64.90
23172;BME280;11754;42.664;23.594;2024-02-23T02:15:28;95060.97;;;7.07;65.02
23172;BME280;11754;42.664;23.594;2024-02-23T02:17:53;95060.16;;;7.06;64.81
23172;BME280;11754;42.664;23.594;2024-02-23T02:20:24;95054.66;;;7.17;64.90
23172;BME280;11754;42.664;23.594;2024-02-23T02:22:50;95061.75;;;7.25;64.08
23172;BME280;11754;42.664;23.594;2024-02-23T02:25:15;95055.28;;;7.45;63.59
23172;BME280;11754;42.664;23.594;2024-02-23T02:27:41;95062.09;;;7.30;64.07
23172;BME280;11754;42.664;23.594;2024-02-23T02:30:07;95061.13;;;7.31;63.70
23172;BME280;11754;42.664;23.594;2024-02-23T02:32:32;95060.47;;;7.29;63.75
23172;BME280;11754;42.664;23.594;2024-02-23T02:34:58;95058.47;;;6.97;64.54
23172;BME280;11754;42.664;23.594;2024-02-23T02:37:23;95054.09;;;7.06;64.08
23172;BME280;11754;42.664;23.594;2024-02-23T02:39:48;95068.19;;;7.05;64.21
23172;BME280;11754;42.664;23.594;2024-02-23T02:42:14;95054.81;;;6.90;64.44
23172;BME280;11754;42.664;23.594;2024-02-23T02:44:39;95054.59;;;6.83;64.77
23172;BME280;11754;42.664;23.594;2024-02-23T02:47:05;95058.53;;;6.79;64.29
23172;BME280;11754;42.664;23.594;2024-02-23T02:49:30;95056.88;;;6.78;64.52
23172;BME280;11754;42.664;23.594;2024-02-23T02:55:17;95049.19;;;6.59;64.92
23172;BME280;11754;42.664;23.594;2024-02-23T02:57:44;95067.22;;;6.62;65.25
23172;BME280;11754;42.664;23.594;2024-02-23T03:00:10;95064.91;;;6.41;66.04
23172;BME280;11754;42.664;23.594;2024-02-23T03:02:37;95060.19;;;6.44;66.04
23172;BME280;11754;42.664;23.594;2024-02-23T03:05:03;95063.50;;;6.46;65.94
23172;BME280;11754;42.664;23.594;2024-02-23T03:07:28;95058.28;;;6.46;65.72
23172;BME280;11754;42.664;23.594;2024-02-23T03:09:53;95036.81;;;6.25;66.76
23172;BME280;11754;42.664;23.594;2024-02-23T03:12:19;95051.25;;;6.29;66.62
23172;BME280;11754;42.664;23.594;2024-02-23T03:14:45;95041.06;;;6.26;66.57
23172;BME280;11754;42.664;23.594;2024-02-23T03:17:19;95039.41;;;6.25;67.00
23172;BME280;11754;42.664;23.594;2024-02-23T03:19:45;95040.91;;;6.10;67.43
23172;BME280;11754;42.664;23.594;2024-02-23T03:22:10;95051.97;;;6.04;67.56
23172;BME280;11754;42.664;23.594;2024-02-23T03:24:35;95047.19;;;5.99;67.56
23172;BME280;11754;42.664;23.594;2024-02-23T03:27:01;95047.41;;;6.06;67.21
23172;BME280;11754;42.664;23.594;2024-02-23T03:29:26;95038.97;;;6.12;67.27
23172;BME280;11754;42.664;23.594;2024-02-23T03:31:55;95050.63;;;5.99;67.61
23172;BME280;11754;42.664;23.594;2024-02-23T03:41:05;95068.28;;;5.97;67.54
23172;BME280;11754;42.664;23.594;2024-02-23T03:43:31;95061.69;;;5.93;67.71
23172;BME280;11754;42.664;23.594;2024-02-23T03:45:57;95065.56;;;5.89;67.70
23172;BME280;11754;42.664;23.594;2024-02-23T03:48:22;95072.19;;;5.84;68.04
23172;BME280;11754;42.664;23.594;2024-02-23T03:50:49;95079.75;;;6.14;66.84
23172;BME280;11754;42.664;23.594;2024-02-23T03:53:14;95072.41;;;5.90;67.40
23172;BME280;11754;42.664;23.594;2024-02-23T03:55:40;95076.56;;;5.93;67.64
23172;BME280;11754;42.664;23.594;2024-02-23T03:58:05;95077.19;;;6.05;67.18
23172;BME280;11754;42.664;23.594;2024-02-23T04:00:31;95059.19;;;5.92;67.05
23172;BME280;11754;42.664;23.594;2024-02-23T04:02:56;95069.72;;;5.82;67.82
23172;BME280;11754;42.664;23.594;2024-02-23T04:05:22;95068.16;;;5.89;67.89
23172;BME280;11754;42.664;23.594;2024-02-23T04:07:47;95086.03;;;6.04;67.02
23172;BME280;11754;42.664;23.594;2024-02-23T04:16:56;95069.47;;;5.75;68.61
23172;BME280;11754;42.664;23.594;2024-02-23T04:19:21;95072.28;;;5.64;68.99
23172;BME280;11754;42.664;23.594;2024-02-23T04:21:47;95074.75;;;5.66;69.07
23172;BME280;11754;42.664;23.594;2024-02-23T04:24:12;95078.50;;;5.36;70.44
23172;BME280;11754;42.664;23.594;2024-02-23T04:46:54;95084.53;;;5.73;69.08
23172;BME280;11754;42.664;23.594;2024-02-23T04:49:20;95087.88;;;5.93;68.69
23172;BME280;11754;42.664;23.594;2024-02-23T04:51:45;95070.78;;;5.89;68.21
23172;BME280;11754;42.664;23.594;2024-02-23T04:54:11;95083.69;;;6.00;68.11
23172;BME280;11754;42.664;23.594;2024-02-23T04:56:36;95082.72;;;5.74;68.64
23172;BME280;11754;42.664;23.594;2024-02-23T05:09:07;95101.28;;;5.16;70.85
23172;BME280;11754;42.664;23.594;2024-02-23T05:11:34;95097.28;;;5.12;71.04
23172;BME280;11754;42.664;23.594;2024-02-23T05:13:59;95095.38;;;5.04;71.55
23172;BME280;11754;42.664;23.594;2024-02-23T05:16:25;95097.34;;;4.92;72.22
23172;BME280;11754;42.664;23.594;2024-02-23T05:18:50;95099.25;;;4.90;72.44
23172;BME280;11754;42.664;23.594;2024-02-23T05:24:38;95108.34;;;4.86;72.75
23172;BME280;11754;42.664;23.594;2024-02-23T05:27:03;95114.38;;;4.96;72.32
23172;BME280;11754;42.664;23.594;2024-02-23T05:29:29;95103.09;;;4.96;72.34
23172;BME280;11754;42.664;23.594;2024-02-23T05:31:54;95123.19;;;5.05;71.70
23172;BME280;11754;42.664;23.594;2024-02-23T05:34:20;95114.09;;;5.09;71.70
23172;BME280;11754;42.664;23.594;2024-02-23T05:40:20;95114.31;;;5.25;71.31
23172;BME280;11754;42.664;23.594;2024-02-23T05:42:46;95112.09;;;5.30;70.72
23172;BME280;11754;42.664;23.594;2024-02-23T05:45:11;95122.50;;;5.40;70.73
23172;BME280;11754;42.664;23.594;2024-02-23T05:47:40;95127.69;;;5.60;70.12
23172;BME280;11754;42.664;23.594;2024-02-23T05:50:07;95115.81;;;5.65;69.70
23172;BME280;11754;42.664;23.594;2024-02-23T05:52:34;95120.03;;;5.76;69.46
23172;BME280;11754;42.664;23.594;2024-02-23T05:55:00;95136.50;;;5.96;68.31
23172;BME280;11754;42.664;23.594;2024-02-23T05:57:27;95129.16;;;5.99;68.10
23172;BME280;11754;42.664;23.594;2024-02-23T05:59:53;95134.00;;;6.22;67.85
23172;BME280;11754;42.664;23.594;2024-02-23T06:02:18;95130.09;;;6.26;67.59
23172;BME280;11754;42.664;23.594;2024-02-23T06:04:43;95138.66;;;6.28;67.31
23172;BME280;11754;42.664;23.594;2024-02-23T06:07:10;95140.59;;;6.62;66.95
23172;BME280;11754;42.664;23.594;2024-02-23T06:09:35;95149.66;;;6.67;66.24
23172;BME280;11754;42.664;23.594;2024-02-23T06:12:01;95135.53;;;6.78;67.14
23172;BME280;11754;42.664;23.594;2024-02-23T06:14:26;95135.81;;;6.75;66.07
23172;BME280;11754;42.664;23.594;2024-02-23T06:16:51;95146.84;;;7.05;65.76
23172;BME280;11754;42.664;23.594;2024-02-23T06:19:17;95159.56;;;7.17;65.19
23172;BME280;11754;42.664;23.594;2024-02-23T06:21:42;95164.81;;;6.99;64.91
23172;BME280;11754;42.664;23.594;2024-02-23T06:27:29;95158.69;;;7.61;63.57
23172;BME280;11754;42.664;23.594;2024-02-23T06:29:55;95154.53;;;7.76;62.90
23172;BME280;11754;42.664;23.594;2024-02-23T06:32:20;95147.09;;;7.71;63.14
23172;BME280;11754;42.664;23.594;2024-02-23T06:34:46;95158.72;;;7.95;63.02
23172;BME280;11754;42.664;23.594;2024-02-23T06:37:11;95150.41;;;8.08;62.77
23172;BME280;11754;42.664;23.594;2024-02-23T06:39:37;95160.19;;;7.98;62.29
23172;BME280;11754;42.664;23.594;2024-02-23T06:42:03;95154.50;;;8.10;62.45
23172;BME280;11754;42.664;23.594;2024-02-23T06:44:30;95162.69;;;8.41;61.45
23172;BME280;11754;42.664;23.594;2024-02-23T06:46:55;95170.94;;;8.63;60.25
23172;BME280;11754;42.664;23.594;2024-02-23T06:52:42;95151.22;;;8.75;59.49
23172;BME280;11754;42.664;23.594;2024-02-23T06:55:07;95161.09;;;8.89;59.18
23172;BME280;11754;42.664;23.594;2024-02-23T06:57:34;95171.44;;;8.83;59.31
23172;BME280;11754;42.664;23.594;2024-02-23T07:00:00;95151.25;;;9.08;58.35
23172;BME280;11754;42.664;23.594;2024-02-23T07:02:25;95150.25;;;9.17;58.99
23172;BME280;11754;42.664;23.594;2024-02-23T07:04:51;95154.66;;;9.41;57.40
23172;BME280;11754;42.664;23.594;2024-02-23T07:07:16;95149.84;;;9.77;56.12
23172;BME280;11754;42.664;23.594;2024-02-23T07:09:41;95147.81;;;9.87;56.86
23172;BME280;11754;42.664;23.594;2024-02-23T07:12:07;95144.47;;;10.02;56.02
23172;BME280;11754;42.664;23.594;2024-02-23T07:14:32;95146.94;;;10.03;56.02
23172;BME280;11754;42.664;23.594;2024-02-23T07:16:58;95139.78;;;10.28;55.55
23172;BME280;11754;42.664;23.594;2024-02-23T07:19:36;95144.63;;;10.48;54.70
23172;BME280;11754;42.664;23.594;2024-02-23T07:22:01;95137.31;;;10.58;54.56
23172;BME280;11754;42.664;23.594;2024-02-23T07:24:27;95140.50;;;10.76;53.75
23172;BME280;11754;42.664;23.594;2024-02-23T07:26:52;95142.97;;;11.01;53.26
23172;BME280;11754;42.664;23.594;2024-02-23T07:29:18;95148.38;;;11.60;51.73
23172;BME280;11754;42.664;23.594;2024-02-23T07:31:44;95133.44;;;11.67;51.03
23172;BME280;11754;42.664;23.594;2024-02-23T07:34:10;95126.41;;;11.74;51.19
23172;BME280;11754;42.664;23.594;2024-02-23T07:36:35;95122.72;;;11.84;51.21
23172;BME280;11754;42.664;23.594;2024-02-23T07:39:00;95115.50;;;11.92;50.89
23172;BME280;11754;42.664;23.594;2024-02-23T07:41:26;95120.16;;;12.05;50.77
23172;BME280;11754;42.664;23.594;2024-02-23T07:43:51;95118.84;;;12.31;49.51
23172;BME280;11754;42.664;23.594;2024-02-23T07:46:17;95117.59;;;12.63;48.58
23172;BME280;11754;42.664;23.594;2024-02-23T07:48:42;95127.19;;;13.28;47.45
23172;BME280;11754;42.664;23.594;2024-02-23T07:51:08;95116.41;;;13.30;46.25
23172;BME280;11754;42.664;23.594;2024-02-23T07:53:34;95104.03;;;14.00;42.91
23172;BME280;11754;42.664;23.594;2024-02-23T07:56:00;95118.25;;;13.92;43.94
23172;BME280;11754;42.664;23.594;2024-02-23T07:58:27;95104.00;;;13.93;45.12
23172;BME280;11754;42.664;23.594;2024-02-23T08:00:53;95116.53;;;14.60;44.31
23172;BME280;11754;42.664;23.594;2024-02-23T08:03:18;95111.75;;;15.37;41.73
23172;BME280;11754;42.664;23.594;2024-02-23T08:05:44;95103.97;;;15.02;41.73
23172;BME280;11754;42.664;23.594;2024-02-23T08:08:09;95105.19;;;15.20;40.20
23172;BME280;11754;42.664;23.594;2024-02-23T08:10:35;95104.34;;;14.99;39.98
23172;BME280;11754;42.664;23.594;2024-02-23T08:13:00;95108.84;;;15.98;38.76
23172;BME280;11754;42.664;23.594;2024-02-23T08:15:26;95098.25;;;16.37;37.43
23172;BME280;11754;42.664;23.594;2024-02-23T08:17:51;95097.44;;;16.36;37.66
23172;BME280;11754;42.664;23.594;2024-02-23T08:20:16;95107.41;;;17.74;35.38
23172;BME280;11754;42.664;23.594;2024-02-23T08:22:42;95106.78;;;16.97;36.40
23172;BME280;11754;42.664;23.594;2024-02-23T08:25:07;95102.16;;;17.67;35.76
23172;BME280;11754;42.664;23.594;2024-02-23T08:27:33;95100.38;;;17.86;34.50
23172;BME280;11754;42.664;23.594;2024-02-23T08:29:59;95089.69;;;18.23;34.43
23172;BME280;11754;42.664;23.594;2024-02-23T08:32:24;95092.88;;;18.13;34.25
23172;BME280;11754;42.664;23.594;2024-02-23T08:34:50;95097.09;;;19.18;33.09
23172;BME280;11754;42.664;23.594;2024-02-23T08:37:18;95091.38;;;20.67;30.42
23172;BME280;11754;42.664;23.594;2024-02-23T08:39:43;95101.31;;;21.12;29.62
23172;BME280;11754;42.664;23.594;2024-02-23T08:42:09;95111.34;;;18.52;32.95
23172;BME280;11754;42.664;23.594;2024-02-23T08:44:35;95077.72;;;16.95;35.00
23172;BME280;11754;42.664;23.594;2024-02-23T08:47:00;95107.78;;;18.58;33.59
23172;BME280;11754;42.664;23.594;2024-02-23T08:49:27;95109.50;;;17.72;33.64
23172;BME280;11754;42.664;23.594;2024-02-23T08:51:52;95108.31;;;20.56;30.53
23172;BME280;11754;42.664;23.594;2024-02-23T08:54:18;95097.97;;;21.05;30.05
23172;BME280;11754;42.664;23.594;2024-02-23T08:56:43;95090.19;;;23.09;27.18
23172;BME280;11754;42.664;23.594;2024-02-23T08:59:09;95088.09;;;24.65;25.83
23172;BME280;11754;42.664;23.594;2024-02-23T09:01:35;95087.16;;;26.25;23.63
23172;BME280;11754;42.664;23.594;2024-02-23T09:04:01;95082.56;;;27.50;22.32
23172;BME280;11754;42.664;23.594;2024-02-23T09:06:26;95088.94;;;27.98;21.80
23172;BME280;11754;42.664;23.594;2024-02-23T09:08:52;95078.75;;;30.60;19.69
23172;BME280;11754;42.664;23.594;2024-02-23T09:11:17;95079.50;;;32.42;18.00
23172;BME280;11754;42.664;23.594;2024-02-23T09:13:43;95075.22;;;32.18;17.66
23172;BME280;11754;42.664;23.594;2024-02-23T09:16:08;95072.97;;;29.55;18.89
23172;BME280;11754;42.664;23.594;2024-02-23T09:18:34;95074.22;;;31.69;18.05
23172;BME280;11754;42.664;23.594;2024-02-23T09:21:00;95073.22;;;33.99;15.90
23172;BME280;11754;42.664;23.594;2024-02-23T09:26:47;95063.47;;;34.75;15.48
23172;BME280;11754;42.664;23.594;2024-02-23T09:29:13;95062.88;;;33.00;15.85
23172;BME280;11754;42.664;23.594;2024-02-23T09:31:38;95080.38;;;29.11;18.54
23172;BME280;11754;42.664;23.594;2024-02-23T09:34:04;95071.53;;;27.36;20.11
23172;BME280;11754;42.664;23.594;2024-02-23T09:36:29;95066.19;;;27.31;20.76
23172;BME280;11754;42.664;23.594;2024-02-23T09:38:55;95063.94;;;30.94;18.12
23172;BME280;11754;42.664;23.594;2024-02-23T09:41:23;95067.94;;;32.85;16.38
23172;BME280;11754;42.664;23.594;2024-02-23T09:43:49;95061.78;;;31.99;16.32
23172;BME280;11754;42.664;23.594;2024-02-23T09:46:18;95071.50;;;34.80;14.86
23172;BME280;11754;42.664;23.594;2024-02-23T09:48:44;95063.06;;;37.01;13.41
23172;BME280;11754;42.664;23.594;2024-02-23T09:51:11;95068.66;;;32.99;15.77
23172;BME280;11754;42.664;23.594;2024-02-23T09:53:38;95068.56;;;32.82;15.88
23172;BME280;11754;42.664;23.594;2024-02-23T09:56:04;95054.03;;;30.98;17.41
23172;BME280;11754;42.664;23.594;2024-02-23T09:58:34;95056.41;;;29.00;18.62
23172;BME280;11754;42.664;23.594;2024-02-23T10:01:02;95068.34;;;25.79;21.14
23172;BME280;11754;42.664;23.594;2024-02-23T10:03:29;95088.81;;;21.18;26.77
23172;BME280;11754;42.664;23.594;2024-02-23T10:05:57;95090.94;;;20.47;27.91
23172;BME280;11754;42.664;23.594;2024-02-23T10:08:23;95062.94;;;20.95;27.56
23172;BME280;11754;42.664;23.594;2024-02-23T10:10:48;95058.34;;;23.65;24.84
23172;BME280;11754;42.664;23.594;2024-02-23T10:13:20;95051.59;;;29.10;19.95
23172;BME280;11754;42.664;23.594;2024-02-23T10:15:49;95051.59;;;31.10;17.59
23172;BME280;11754;42.664;23.594;2024-02-23T10:18:15;95058.47;;;31.66;17.95
23172;BME280;11754;42.664;23.594;2024-02-23T10:20:40;95057.59;;;32.24;16.17
23172;BME280;11754;42.664;23.594;2024-02-23T10:23:07;95044.16;;;32.05;15.87
23172;BME280;11754;42.664;23.594;2024-02-23T10:25:45;95061.44;;;24.16;21.97
23172;BME280;11754;42.664;23.594;2024-02-23T10:28:10;95036.38;;;23.73;23.09
23172;BME280;11754;42.664;23.594;2024-02-23T10:30:37;95031.34;;;28.60;18.81
23172;BME280;11754;42.664;23.594;2024-02-23T10:33:05;95014.50;;;31.59;16.71
23172;BME280;11754;42.664;23.594;2024-02-23T10:35:31;95012.25;;;33.38;15.78
23172;BME280;11754;42.664;23.594;2024-02-23T10:37:57;95012.09;;;35.01;14.45
23172;BME280;11754;42.664;23.594;2024-02-23T10:40:24;95005.75;;;34.80;14.69
23172;BME280;11754;42.664;23.594;2024-02-23T10:42:56;95004.63;;;36.92;12.92
23172;BME280;11754;42.664;23.594;2024-02-23T10:45:22;94996.88;;;40.61;11.66
23172;BME280;11754;42.664;23.594;2024-02-23T10:47:48;95002.38;;;38.66;12.15
23172;BME280;11754;42.664;23.594;2024-02-23T10:50:15;94998.91;;;38.22;11.92
23172;BME280;11754;42.664;23.594;2024-02-23T10:52:43;94983.44;;;40.13;11.18
23172;BME280;11754;42.664;23.594;2024-02-23T10:55:09;94983.88;;;39.96;10.88
23172;BME280;11754;42.664;23.594;2024-02-23T10:57:35;94994.72;;;40.73;11.08
23172;BME280;11754;42.664;23.594;2024-02-23T11:00:02;94990.66;;;37.50;12.18
23172;BME280;11754;42.664;23.594;2024-02-23T11:02:32;94976.53;;;38.39;12.25
23172;BME280;11754;42.664;23.594;2024-02-23T11:04:59;94984.69;;;38.52;12.15
23172;BME280;11754;42.664;23.594;2024-02-23T11:07:25;94980.22;;;40.80;10.66
23172;BME280;11754;42.664;23.594;2024-02-23T11:10:00;94968.88;;;42.61;9.96
23172;BME280;11754;42.664;23.594;2024-02-23T11:12:28;94957.50;;;40.94;10.45
23172;BME280;11754;42.664;23.594;2024-02-23T11:14:58;94960.69;;;37.89;11.95
23172;BME280;11754;42.664;23.594;2024-02-23T11:17:30;94948.69;;;39.31;11.50
23172;BME280;11754;42.664;23.594;2024-02-23T11:19:56;94967.41;;;41.89;10.13
23172;BME280;11754;42.664;23.594;2024-02-23T11:22:26;94970.03;;;32.03;15.05
23172;BME280;11754;42.664;23.594;2024-02-23T11:24:52;94970.06;;;28.59;17.99
23172;BME280;11754;42.664;23.594;2024-02-23T11:27:18;94980.75;;;26.70;19.59
23172;BME280;11754;42.664;23.594;2024-02-23T11:29:47;94965.88;;;23.77;22.26
23172;BME280;11754;42.664;23.594;2024-02-23T11:32:16;94959.56;;;24.18;22.51
23172;BME280;11754;42.664;23.594;2024-02-23T11:34:54;94961.19;;;24.19;22.21
23172;BME280;11754;42.664;23.594;2024-02-23T11:44:02;94964.63;;;24.93;21.24
23172;BME280;11754;42.664;23.594;2024-02-23T11:46:28;94955.88;;;26.08;20.42
23172;BME280;11754;42.664;23.594;2024-02-23T11:48:54;94959.97;;;26.60;20.12
23172;BME280;11754;42.664;23.594;2024-02-23T11:51:20;94959.19;;;26.99;19.47
23172;BME280;11754;42.664;23.594;2024-02-23T11:57:08;94942.34;;;27.42;18.58
23172;BME280;11754;42.664;23.594;2024-02-23T11:59:33;94948.22;;;29.86;17.40
23172;BME280;11754;42.664;23.594;2024-02-23T12:01:59;94945.78;;;25.39;20.23
23172;BME280;11754;42.664;23.594;2024-02-23T12:04:26;94942.31;;;24.14;21.73
23172;BME280;11754;42.664;23.594;2024-02-23T12:06:52;94939.84;;;25.16;21.20
23172;BME280;11754;42.664;23.594;2024-02-23T12:09:18;94936.56;;;25.09;21.63
23172;BME280;11754;42.664;23.594;2024-02-23T12:11:43;94926.06;;;26.24;20.30
23172;BME280;11754;42.664;23.594;2024-02-23T12:17:31;94938.69;;;25.79;20.83
23172;BME280;11754;42.664;23.594;2024-02-23T12:20:00;94929.03;;;25.32;21.15
23172;BME280;11754;42.664;23.594;2024-02-23T12:22:25;94926.28;;;25.62;20.36
23172;BME280;11754;42.664;23.594;2024-02-23T12:24:51;94914.84;;;26.01;20.87
23172;BME280;11754;42.664;23.594;2024-02-23T12:27:17;94917.41;;;27.45;19.62
23172;BME280;11754;42.664;23.594;2024-02-23T12:33:06;94912.25;;;25.55;20.94
23172;BME280;11754;42.664;23.594;2024-02-23T12:35:36;94924.59;;;25.97;20.32
23172;BME280;11754;42.664;23.594;2024-02-23T12:38:01;94915.41;;;26.92;20.02
23172;BME280;11754;42.664;23.594;2024-02-23T12:40:27;94908.81;;;27.38;19.02
23172;BME280;11754;42.664;23.594;2024-02-23T12:42:52;94908.97;;;25.79;20.54
23172;BME280;11754;42.664;23.594;2024-02-23T12:45:18;94921.19;;;24.69;21.41
23172;BME280;11754;42.664;23.594;2024-02-23T12:47:43;94917.38;;;24.44;22.10
23172;BME280;11754;42.664;23.594;2024-02-23T12:50:09;94898.56;;;23.77;22.76
23172;BME280;11754;42.664;23.594;2024-02-23T12:55:56;94885.75;;;25.68;20.96
23172;BME280;11754;42.664;23.594;2024-02-23T12:58:22;94894.47;;;24.47;21.87
23172;BME280;11754;42.664;23.594;2024-02-23T13:00:47;94890.72;;;25.30;21.06
23172;BME280;11754;42.664;23.594;2024-02-23T13:03:12;94893.31;;;23.12;23.19
23172;BME280;11754;42.664;23.594;2024-02-23T13:05:38;94898.44;;;22.82;23.87
23172;BME280;11754;42.664;23.594;2024-02-23T13:08:03;94889.66;;;25.10;21.66
23172;BME280;11754;42.664;23.594;2024-02-23T13:13:51;94904.84;;;24.08;22.57
23172;BME280;11754;42.664;23.594;2024-02-23T13:16:16;94887.69;;;24.34;21.90
23172;BME280;11754;42.664;23.594;2024-02-23T13:18:41;94893.59;;;24.21;22.28
23172;BME280;11754;42.664;23.594;2024-02-23T13:21:07;94877.75;;;25.27;21.86
23172;BME280;11754;42.664;23.594;2024-02-23T13:23:32;94903.31;;;23.64;22.78
23172;BME280;11754;42.664;23.594;2024-02-23T13:25:57;94905.34;;;22.40;24.10
23172;BME280;11754;42.664;23.594;2024-02-23T13:28:23;94902.72;;;23.57;23.64
23172;BME280;11754;42.664;23.594;2024-02-23T13:30:48;94887.94;;;21.99;24.44
23172;BME280;11754;42.664;23.594;2024-02-23T13:33:14;94888.56;;;21.23;25.69
23172;BME280;11754;42.664;23.594;2024-02-23T13:35:41;94892.75;;;19.89;26.56
23172;BME280;11754;42.664;23.594;2024-02-23T13:38:07;94896.03;;;18.92;28.17
23172;BME280;11754;42.664;23.594;2024-02-23T13:40:34;94888.38;;;18.31;29.40
23172;BME280;11754;42.664;23.594;2024-02-23T13:42:59;94903.03;;;18.10;29.63
23172;BME280;11754;42.664;23.594;2024-02-23T13:45:25;94897.94;;;18.08;29.89
23172;BME280;11754;42.664;23.594;2024-02-23T13:47:58;94923.13;;;17.82;30.35
23172;BME280;11754;42.664;23.594;2024-02-23T13:50:24;94900.78;;;18.25;29.83
23172;BME280;11754;42.664;23.594;2024-02-23T13:52:50;94901.19;;;18.10;30.48
23172;BME280;11754;42.664;23.594;2024-02-23T13:55:16;94904.25;;;19.14;29.31
23172;BME280;11754;42.664;23.594;2024-02-23T13:57:41;94902.72;;;20.51;27.26
23172;BME280;11754;42.664;23.594;2024-02-23T14:00:09;94892.59;;;22.30;25.57
23172;BME280;11754;42.664;23.594;2024-02-23T14:02:38;94896.16;;;22.68;24.14
23172;BME280;11754;42.664;23.594;2024-02-23T14:05:06;94882.56;;;22.21;24.79
23172;BME280;11754;42.664;23.594;2024-02-23T14:07:33;94886.00;;;20.95;25.44
23172;BME280;11754;42.664;23.594;2024-02-23T14:09:58;94906.13;;;19.89;26.29
23172;BME280;11754;42.664;23.594;2024-02-23T14:12:24;94908.38;;;18.10;29.09
23172;BME280;11754;42.664;23.594;2024-02-23T14:14:49;94909.19;;;17.80;29.45
23172;BME280;11754;42.664;23.594;2024-02-23T14:17:15;94898.66;;;17.12;31.22
23172;BME280;11754;42.664;23.594;2024-02-23T14:19:40;94917.38;;;16.80;31.90
23172;BME280;11754;42.664;23.594;2024-02-23T14:22:06;94900.91;;;16.65;31.89
23172;BME280;11754;42.664;23.594;2024-02-23T14:24:32;94912.09;;;16.48;32.50
23172;BME280;11754;42.664;23.594;2024-02-23T14:26:57;94908.03;;;16.46;32.62
23172;BME280;11754;42.664;23.594;2024-02-23T14:29:23;94914.59;;;16.43;33.20
23172;BME280;11754;42.664;23.594;2024-02-23T14:31:48;94913.44;;;16.89;31.91
23172;BME280;11754;42.664;23.594;2024-02-23T14:34:14;94907.69;;;17.47;31.66
23172;BME280;11754;42.664;23.594;2024-02-23T14:36:39;94918.44;;;17.96;30.69
23172;BME280;11754;42.664;23.594;2024-02-23T14:39:04;94913.56;;;19.24;28.95
23172;BME280;11754;42.664;23.594;2024-02-23T14:41:30;94909.38;;;19.63;28.14
23172;BME280;11754;42.664;23.594;2024-02-23T14:43:56;94911.41;;;20.13;27.78
23172;BME280;11754;42.664;23.594;2024-02-23T14:46:21;94908.78;;;20.47;27.46
23172;BME280;11754;42.664;23.594;2024-02-23T14:48:47;94911.22;;;20.03;27.85
23172;BME280;11754;42.664;23.594;2024-02-23T14:51:15;94923.47;;;20.27;27.54
23172;BME280;11754;42.664;23.594;2024-02-23T14:53:41;94916.09;;;19.54;28.67
23172;BME280;11754;42.664;23.594;2024-02-23T14:56:07;94919.75;;;19.01;29.37
23172;BME280;11754;42.664;23.594;2024-02-23T14:58:58;94922.34;;;17.93;30.79
23172;BME280;11754;42.664;23.594;2024-02-23T15:01:26;94919.25;;;17.23;32.19
23172;BME280;11754;42.664;23.594;2024-02-23T15:03:51;94925.47;;;16.67;33.27
23172;BME280;11754;42.664;23.594;2024-02-23T15:06:17;94929.59;;;16.38;33.85
23172;BME280;11754;42.664;23.594;2024-02-23T15:08:44;94933.22;;;16.12;34.22
23172;BME280;11754;42.664;23.594;2024-02-23T15:11:15;94942.94;;;15.86;34.96
23172;BME280;11754;42.664;23.594;2024-02-23T15:13:41;94946.88;;;15.83;35.04
23172;BME280;11754;42.664;23.594;2024-02-23T15:16:06;94943.97;;;15.92;35.22
23172;BME280;11754;42.664;23.594;2024-02-23T15:18:32;94948.16;;;15.68;35.58
23172;BME280;11754;42.664;23.594;2024-02-23T15:20:57;94946.88;;;15.83;35.49
23172;BME280;11754;42.664;23.594;2024-02-23T15:23:23;94939.59;;;15.66;35.82